AUR39J EGJJ-EGJB

Flight info

Callsign AUR39J
Flight time 0h 12m
Altitude 3500
Route EGJJ/08 GUR
Aircraft AT76/M-SDFGIRY/S

Departure

Time 2026-05-08 20:28
Airport Jersey Airport (EGJJ)

Arrival

Time 2026-05-08 20:40
Airport Guernsey Airport (EGJB)
Time Latitude Longitude Altitude Speed Heading
2026-05-08 20:00 49.20550 -2.19806 280 ft 0 kts 174°
2026-05-08 20:20 49.20572 -2.19809 280 ft 4 kts 182°
2026-05-08 20:20 49.20598 -2.19802 280 ft 4 kts 210°
2026-05-08 20:21 49.20612 -2.19779 280 ft 1 kts 263°
2026-05-08 20:21 49.20612 -2.19777 280 ft 0 kts 263°
2026-05-08 20:24 49.20609 -2.19820 280 ft 10 kts 264°
2026-05-08 20:25 49.20584 -2.19931 280 ft 8 kts 203°
2026-05-08 20:25 49.20530 -2.19935 280 ft 8 kts 199°
2026-05-08 20:25 49.20528 -2.20038 280 ft 14 kts 287°
2026-05-08 20:25 49.20561 -2.20205 280 ft 18 kts 287°
2026-05-08 20:26 49.20598 -2.20401 280 ft 19 kts 287°
2026-05-08 20:26 49.20624 -2.20554 281 ft 15 kts 277°
2026-05-08 20:26 49.20653 -2.20700 281 ft 14 kts 333°
2026-05-08 20:26 49.20703 -2.20663 280 ft 6 kts 70°
2026-05-08 20:27 49.20708 -2.20628 280 ft 0 kts 82°
2026-05-08 20:27 49.20709 -2.20621 280 ft 8 kts 82°
2026-05-08 20:27 49.20749 -2.20147 279 ft 79 kts 82°
2026-05-08 20:27 49.20838 -2.19078 480 ft 110 kts 82°
2026-05-08 20:28 49.20936 -2.17871 1026 ft 116 kts 83°
2026-05-08 20:28 49.21061 -2.16652 1682 ft 117 kts 84°
2026-05-08 20:28 49.21260 -2.15417 1973 ft 135 kts 65°
2026-05-08 20:28 49.22181 -2.14618 2003 ft 181 kts
2026-05-08 20:29 49.23478 -2.15232 2003 ft 215 kts 325°
2026-05-08 20:29 49.24457 -2.17020 2020 ft 228 kts 306°
2026-05-08 20:29 49.25383 -2.19032 2008 ft 234 kts 306°
2026-05-08 20:29 49.26311 -2.21104 2020 ft 238 kts 304°
2026-05-08 20:30 49.27231 -2.23231 2034 ft 241 kts 304°
2026-05-08 20:30 49.28167 -2.25391 2028 ft 245 kts 305°
2026-05-08 20:30 49.29125 -2.27567 2026 ft 247 kts 305°
2026-05-08 20:30 49.30099 -2.29743 2019 ft 248 kts 306°
2026-05-08 20:31 49.31083 -2.31916 2016 ft 248 kts 306°
2026-05-08 20:31 49.32069 -2.34084 2023 ft 248 kts 305°
2026-05-08 20:31 49.33049 -2.36270 2020 ft 249 kts 306°
2026-05-08 20:31 49.34028 -2.38458 2020 ft 249 kts 306°
2026-05-08 20:32 49.34881 -2.40740 2017 ft 247 kts 288°
2026-05-08 20:32 49.35261 -2.43288 2024 ft 245 kts 281°
2026-05-08 20:32 49.35623 -2.45848 2021 ft 247 kts 281°
2026-05-08 20:32 49.35976 -2.48430 2025 ft 248 kts 281°
2026-05-08 20:33 49.36313 -2.51028 2018 ft 249 kts 280°
2026-05-08 20:33 49.36649 -2.53627 2020 ft 249 kts 280°
2026-05-08 20:33 49.36948 -2.56245 2025 ft 249 kts 275°
2026-05-08 20:33 49.37061 -2.58886 2022 ft 249 kts 271°
2026-05-08 20:34 49.37093 -2.61532 2018 ft 248 kts 269°
2026-05-08 20:34 49.37108 -2.64180 2019 ft 248 kts 269°
2026-05-08 20:34 49.37100 -2.69479 2021 ft 248 kts 268°
2026-05-08 20:35 49.37084 -2.72122 2019 ft 248 kts 268°
2026-05-08 20:35 49.37068 -2.74771 2022 ft 249 kts 268°
2026-05-08 20:35 49.37104 -2.77378 2017 ft 235 kts 280°
2026-05-08 20:35 49.37840 -2.79480 2027 ft 220 kts 319°
2026-05-08 20:36 49.39139 -2.80425 2027 ft 200 kts 358°
2026-05-08 20:36 49.40476 -2.80528 2024 ft 184 kts
2026-05-08 20:36 49.41695 -2.80544 2017 ft 165 kts 11°
2026-05-08 20:36 49.42647 -2.79822 2014 ft 153 kts 51°
2026-05-08 20:37 49.43125 -2.78405 2017 ft 152 kts 88°
2026-05-08 20:37 49.43106 -2.76781 2027 ft 153 kts 93°
2026-05-08 20:37 49.43081 -2.75159 2022 ft 151 kts 92°
2026-05-08 20:37 49.43100 -2.73538 1904 ft 154 kts 88°
2026-05-08 20:38 49.43182 -2.71899 1696 ft 150 kts 88°
2026-05-08 20:38 49.43229 -2.70371 1493 ft 137 kts 90°
2026-05-08 20:38 49.43254 -2.69020 1323 ft 115 kts 89°
2026-05-08 20:38 49.43280 -2.67865 1179 ft 105 kts 88°
2026-05-08 20:39 49.43322 -2.66756 1060 ft 104 kts 87°
2026-05-08 20:39 49.43355 -2.65665 930 ft 100 kts 88°
2026-05-08 20:39 49.43377 -2.64628 729 ft 95 kts 86°
2026-05-08 20:39 49.43414 -2.63566 634 ft 101 kts 87°
2026-05-08 20:40 49.43438 -2.62509 502 ft 98 kts 88°
2026-05-08 20:40 49.43464 -2.61483 356 ft 96 kts 87°
2026-05-08 20:40 49.43488 -2.60530 304 ft 76 kts 87°
2026-05-08 20:40 49.43502 -2.60032 313 ft 26 kts 87°
2026-05-08 20:41 49.43476 -2.59866 319 ft 12 kts 157°
2026-05-08 20:41 49.43397 -2.59858 322 ft 12 kts 177°
2026-05-08 20:41 49.43347 -2.59814 323 ft 5 kts 97°
2026-05-08 20:41 49.43347 -2.59763 324 ft 4 kts 104°
2026-05-08 20:42 49.43325 -2.59748 323 ft 6 kts 175°
2026-05-08 20:42 49.43305 -2.59746 324 ft 3 kts 178°
2026-05-08 20:42 49.43285 -2.59744 324 ft 1 kts 178°
2026-05-08 20:42 49.43284 -2.59744 324 ft 0 kts 178°